sensor_id;sensor_type;location;lat;lon;timestamp;P1;durP1;ratioP1;P2;durP2;ratioP2
41943;SDS011;27636;52.610;13.244;2022-11-11T00:02:11;10.93;;;3.28;;
41943;SDS011;27636;52.610;13.244;2022-11-11T00:07:34;8.57;;;2.42;;
41943;SDS011;27636;52.610;13.244;2022-11-11T00:12:59;10.52;;;2.65;;
41943;SDS011;27636;52.610;13.244;2022-11-11T00:18:22;12.52;;;2.22;;
41943;SDS011;27636;52.610;13.244;2022-11-11T00:24:04;7.68;;;2.55;;
41943;SDS011;27636;52.610;13.244;2022-11-11T00:29:56;12.43;;;2.90;;
41943;SDS011;27636;52.610;13.244;2022-11-11T00:35:18;5.85;;;2.22;;
41943;SDS011;27636;52.610;13.244;2022-11-11T00:40:59;9.80;;;2.65;;
41943;SDS011;27636;52.610;13.244;2022-11-11T00:46:21;5.50;;;2.22;;
41943;SDS011;27636;52.610;13.244;2022-11-11T00:52:02;11.93;;;3.13;;
41943;SDS011;27636;52.610;13.244;2022-11-11T00:57:25;11.75;;;2.58;;
41943;SDS011;27636;52.610;13.244;2022-11-11T01:02:47;12.90;;;3.08;;
41943;SDS011;27636;52.610;13.244;2022-11-11T01:08:09;15.95;;;3.50;;
41943;SDS011;27636;52.610;13.244;2022-11-11T01:13:32;9.65;;;2.88;;
41943;SDS011;27636;52.610;13.244;2022-11-11T01:18:54;13.63;;;2.67;;
41943;SDS011;27636;52.610;13.244;2022-11-11T01:24:16;13.68;;;2.55;;
41943;SDS011;27636;52.610;13.244;2022-11-11T01:29:39;7.68;;;2.10;;
41943;SDS011;27636;52.610;13.244;2022-11-11T01:35:01;11.43;;;2.95;;
41943;SDS011;27636;52.610;13.244;2022-11-11T01:40:23;8.45;;;2.70;;
41943;SDS011;27636;52.610;13.244;2022-11-11T01:45:56;7.20;;;2.65;;
41943;SDS011;27636;52.610;13.244;2022-11-11T01:51:23;10.52;;;2.72;;
41943;SDS011;27636;52.610;13.244;2022-11-11T01:56:52;5.97;;;2.50;;
41943;SDS011;27636;52.610;13.244;2022-11-11T02:02:21;10.38;;;2.78;;
41943;SDS011;27636;52.610;13.244;2022-11-11T02:07:47;8.50;;;2.17;;
41943;SDS011;27636;52.610;13.244;2022-11-11T02:13:11;7.00;;;2.92;;
41943;SDS011;27636;52.610;13.244;2022-11-11T02:18:55;8.68;;;3.35;;
41943;SDS011;27636;52.610;13.244;2022-11-11T02:24:18;11.52;;;2.95;;
41943;SDS011;27636;52.610;13.244;2022-11-11T02:29:42;13.55;;;3.40;;
41943;SDS011;27636;52.610;13.244;2022-11-11T02:35:10;7.93;;;2.47;;
41943;SDS011;27636;52.610;13.244;2022-11-11T02:40:37;9.90;;;2.75;;
41943;SDS011;27636;52.610;13.244;2022-11-11T02:46:19;11.32;;;2.78;;
41943;SDS011;27636;52.610;13.244;2022-11-11T02:51:41;6.28;;;2.63;;
41943;SDS011;27636;52.610;13.244;2022-11-11T02:57:05;4.80;;;2.00;;
41943;SDS011;27636;52.610;13.244;2022-11-11T03:02:30;11.38;;;2.83;;
41943;SDS011;27636;52.610;13.244;2022-11-11T03:07:53;11.63;;;2.65;;
41943;SDS011;27636;52.610;13.244;2022-11-11T03:13:17;7.57;;;2.58;;
41943;SDS011;27636;52.610;13.244;2022-11-11T03:18:39;15.18;;;3.47;;
41943;SDS011;27636;52.610;13.244;2022-11-11T03:24:01;6.50;;;2.50;;
41943;SDS011;27636;52.610;13.244;2022-11-11T03:29:24;9.55;;;3.40;;
41943;SDS011;27636;52.610;13.244;2022-11-11T03:34:46;8.57;;;2.42;;
41943;SDS011;27636;52.610;13.244;2022-11-11T03:40:09;8.98;;;2.60;;
41943;SDS011;27636;52.610;13.244;2022-11-11T03:45:32;7.15;;;2.40;;
41943;SDS011;27636;52.610;13.244;2022-11-11T03:50:53;7.90;;;2.63;;
41943;SDS011;27636;52.610;13.244;2022-11-11T03:56:15;9.25;;;2.20;;
41943;SDS011;27636;52.610;13.244;2022-11-11T04:01:38;8.68;;;2.17;;
41943;SDS011;27636;52.610;13.244;2022-11-11T04:07:19;7.88;;;2.78;;
41943;SDS011;27636;52.610;13.244;2022-11-11T04:13:00;4.63;;;2.22;;
41943;SDS011;27636;52.610;13.244;2022-11-11T04:18:43;6.28;;;2.42;;
41943;SDS011;27636;52.610;13.244;2022-11-11T04:24:24;4.65;;;2.03;;
41943;SDS011;27636;52.610;13.244;2022-11-11T04:30:06;5.70;;;1.98;;
41943;SDS011;27636;52.610;13.244;2022-11-11T04:35:30;11.15;;;2.25;;
41943;SDS011;27636;52.610;13.244;2022-11-11T04:40:52;7.80;;;2.42;;
41943;SDS011;27636;52.610;13.244;2022-11-11T04:46:23;7.65;;;1.92;;
41943;SDS011;27636;52.610;13.244;2022-11-11T04:51:46;9.15;;;3.03;;
41943;SDS011;27636;52.610;13.244;2022-11-11T04:57:26;5.57;;;1.60;;
41943;SDS011;27636;52.610;13.244;2022-11-11T05:02:51;5.85;;;1.90;;
41943;SDS011;27636;52.610;13.244;2022-11-11T05:08:34;6.77;;;2.17;;
41943;SDS011;27636;52.610;13.244;2022-11-11T05:14:15;9.20;;;2.33;;
41943;SDS011;27636;52.610;13.244;2022-11-11T05:19:56;6.43;;;2.13;;
41943;SDS011;27636;52.610;13.244;2022-11-11T05:25:38;11.07;;;2.20;;
41943;SDS011;27636;52.610;13.244;2022-11-11T05:30:59;5.38;;;2.33;;
41943;SDS011;27636;52.610;13.244;2022-11-11T05:36:21;5.05;;;1.83;;
41943;SDS011;27636;52.610;13.244;2022-11-11T05:41:44;4.75;;;1.30;;
41943;SDS011;27636;52.610;13.244;2022-11-11T05:47:06;4.95;;;2.22;;
41943;SDS011;27636;52.610;13.244;2022-11-11T05:52:28;7.80;;;2.53;;
41943;SDS011;27636;52.610;13.244;2022-11-11T05:57:51;12.40;;;2.70;;
41943;SDS011;27636;52.610;13.244;2022-11-11T06:03:12;6.97;;;2.17;;
41943;SDS011;27636;52.610;13.244;2022-11-11T06:08:34;8.40;;;2.53;;
41943;SDS011;27636;52.610;13.244;2022-11-11T06:13:57;6.15;;;1.90;;
41943;SDS011;27636;52.610;13.244;2022-11-11T06:19:19;5.85;;;2.20;;
41943;SDS011;27636;52.610;13.244;2022-11-11T06:24:41;6.07;;;1.95;;
41943;SDS011;27636;52.610;13.244;2022-11-11T06:30:04;7.78;;;2.75;;
41943;SDS011;27636;52.610;13.244;2022-11-11T06:35:46;8.57;;;2.30;;
41943;SDS011;27636;52.610;13.244;2022-11-11T06:41:09;8.00;;;2.15;;
41943;SDS011;27636;52.610;13.244;2022-11-11T06:46:37;12.82;;;3.17;;
41943;SDS011;27636;52.610;13.244;2022-11-11T06:51:58;7.10;;;2.30;;
41943;SDS011;27636;52.610;13.244;2022-11-11T06:57:21;8.57;;;2.78;;
41943;SDS011;27636;52.610;13.244;2022-11-11T07:02:44;5.47;;;1.90;;
41943;SDS011;27636;52.610;13.244;2022-11-11T07:08:08;6.50;;;2.33;;
41943;SDS011;27636;52.610;13.244;2022-11-11T07:13:31;6.93;;;2.15;;
41943;SDS011;27636;52.610;13.244;2022-11-11T07:18:54;6.28;;;2.38;;
41943;SDS011;27636;52.610;13.244;2022-11-11T07:24:16;9.65;;;2.55;;
41943;SDS011;27636;52.610;13.244;2022-11-11T07:29:38;6.00;;;2.53;;
41943;SDS011;27636;52.610;13.244;2022-11-11T07:35:01;11.40;;;2.17;;
41943;SDS011;27636;52.610;13.244;2022-11-11T07:40:23;10.75;;;3.80;;
41943;SDS011;27636;52.610;13.244;2022-11-11T07:45:44;9.32;;;3.38;;
41943;SDS011;27636;52.610;13.244;2022-11-11T07:51:08;5.97;;;1.95;;
41943;SDS011;27636;52.610;13.244;2022-11-11T07:56:30;5.97;;;1.77;;
41943;SDS011;27636;52.610;13.244;2022-11-11T08:01:52;6.00;;;1.77;;
41943;SDS011;27636;52.610;13.244;2022-11-11T08:07:15;6.82;;;2.30;;
41943;SDS011;27636;52.610;13.244;2022-11-11T08:12:43;7.30;;;2.90;;
41943;SDS011;27636;52.610;13.244;2022-11-11T08:18:23;4.53;;;1.73;;
41943;SDS011;27636;52.610;13.244;2022-11-11T08:23:47;9.40;;;1.92;;
41943;SDS011;27636;52.610;13.244;2022-11-11T08:29:29;5.30;;;1.60;;
41943;SDS011;27636;52.610;13.244;2022-11-11T08:34:50;7.97;;;2.28;;
41943;SDS011;27636;52.610;13.244;2022-11-11T08:40:14;7.20;;;2.00;;
41943;SDS011;27636;52.610;13.244;2022-11-11T08:45:36;4.93;;;1.77;;
41943;SDS011;27636;52.610;13.244;2022-11-11T08:50:58;5.30;;;2.80;;
41943;SDS011;27636;52.610;13.244;2022-11-11T08:56:21;6.35;;;2.25;;
41943;SDS011;27636;52.610;13.244;2022-11-11T09:01:43;7.82;;;2.15;;
41943;SDS011;27636;52.610;13.244;2022-11-11T09:07:04;8.15;;;2.08;;
41943;SDS011;27636;52.610;13.244;2022-11-11T09:12:28;5.57;;;1.75;;
41943;SDS011;27636;52.610;13.244;2022-11-11T09:17:50;3.53;;;1.45;;
41943;SDS011;27636;52.610;13.244;2022-11-11T09:23:12;5.47;;;1.50;;
41943;SDS011;27636;52.610;13.244;2022-11-11T09:28:35;2.85;;;1.20;;
41943;SDS011;27636;52.610;13.244;2022-11-11T09:34:02;4.80;;;1.60;;
41943;SDS011;27636;52.610;13.244;2022-11-11T09:39:23;6.03;;;1.33;;
41943;SDS011;27636;52.610;13.244;2022-11-11T09:44:53;4.97;;;1.25;;
41943;SDS011;27636;52.610;13.244;2022-11-11T09:50:27;6.53;;;1.55;;
41943;SDS011;27636;52.610;13.244;2022-11-11T09:55:51;8.73;;;2.60;;
41943;SDS011;27636;52.610;13.244;2022-11-11T10:01:20;4.72;;;1.45;;
41943;SDS011;27636;52.610;13.244;2022-11-11T10:06:46;3.58;;;1.27;;
41943;SDS011;27636;52.610;13.244;2022-11-11T10:12:10;10.38;;;1.75;;
41943;SDS011;27636;52.610;13.244;2022-11-11T10:17:37;5.75;;;2.03;;
41943;SDS011;27636;52.610;13.244;2022-11-11T10:23:16;5.03;;;1.48;;
41943;SDS011;27636;52.610;13.244;2022-11-11T10:28:42;7.22;;;1.70;;
41943;SDS011;27636;52.610;13.244;2022-11-11T10:34:09;3.43;;;1.27;;
41943;SDS011;27636;52.610;13.244;2022-11-11T10:39:36;8.52;;;1.63;;
41943;SDS011;27636;52.610;13.244;2022-11-11T10:50:34;3.38;;;1.25;;
41943;SDS011;27636;52.610;13.244;2022-11-11T10:55:59;4.47;;;1.35;;
41943;SDS011;27636;52.610;13.244;2022-11-11T11:01:28;5.68;;;1.70;;
41943;SDS011;27636;52.610;13.244;2022-11-11T11:06:56;4.70;;;1.25;;
41943;SDS011;27636;52.610;13.244;2022-11-11T11:12:21;6.70;;;1.85;;
41943;SDS011;27636;52.610;13.244;2022-11-11T11:17:50;6.50;;;1.42;;
41943;SDS011;27636;52.610;13.244;2022-11-11T11:23:18;7.93;;;1.75;;
41943;SDS011;27636;52.610;13.244;2022-11-11T11:28:56;7.07;;;1.33;;
41943;SDS011;27636;52.610;13.244;2022-11-11T11:34:19;4.38;;;1.48;;
41943;SDS011;27636;52.610;13.244;2022-11-11T11:39:42;3.88;;;1.77;;
41943;SDS011;27636;52.610;13.244;2022-11-11T11:45:15;4.70;;;1.27;;
41943;SDS011;27636;52.610;13.244;2022-11-11T11:50:41;4.82;;;1.48;;
41943;SDS011;27636;52.610;13.244;2022-11-11T11:56:12;4.25;;;1.38;;
41943;SDS011;27636;52.610;13.244;2022-11-11T12:01:42;3.97;;;1.48;;
41943;SDS011;27636;52.610;13.244;2022-11-11T12:07:17;3.88;;;1.10;;
41943;SDS011;27636;52.610;13.244;2022-11-11T12:12:54;5.47;;;1.20;;
41943;SDS011;27636;52.610;13.244;2022-11-11T12:18:31;3.97;;;1.30;;
41943;SDS011;27636;52.610;13.244;2022-11-11T12:24:02;3.38;;;1.42;;
41943;SDS011;27636;52.610;13.244;2022-11-11T12:29:37;5.32;;;1.20;;
41943;SDS011;27636;52.610;13.244;2022-11-11T12:35:14;2.85;;;1.15;;
41943;SDS011;27636;52.610;13.244;2022-11-11T12:40:45;11.38;;;3.58;;
41943;SDS011;27636;52.610;13.244;2022-11-11T12:46:21;9.13;;;1.10;;
41943;SDS011;27636;52.610;13.244;2022-11-11T12:51:54;7.38;;;1.83;;
41943;SDS011;27636;52.610;13.244;2022-11-11T12:57:24;3.08;;;1.08;;
41943;SDS011;27636;52.610;13.244;2022-11-11T13:08:54;4.00;;;1.40;;
41943;SDS011;27636;52.610;13.244;2022-11-11T13:14:32;3.72;;;1.00;;
41943;SDS011;27636;52.610;13.244;2022-11-11T13:20:15;6.40;;;1.48;;
41943;SDS011;27636;52.610;13.244;2022-11-11T13:25:43;7.55;;;2.28;;
41943;SDS011;27636;52.610;13.244;2022-11-11T13:31:14;6.97;;;1.77;;
41943;SDS011;27636;52.610;13.244;2022-11-11T13:36:42;5.53;;;1.38;;
41943;SDS011;27636;52.610;13.244;2022-11-11T13:42:08;4.30;;;1.58;;
41943;SDS011;27636;52.610;13.244;2022-11-11T13:47:43;5.13;;;1.63;;
41943;SDS011;27636;52.610;13.244;2022-11-11T13:53:13;6.70;;;1.42;;
41943;SDS011;27636;52.610;13.244;2022-11-11T13:58:45;7.18;;;2.35;;
41943;SDS011;27636;52.610;13.244;2022-11-11T14:04:09;9.88;;;1.80;;
41943;SDS011;27636;52.610;13.244;2022-11-11T14:09:51;4.93;;;1.70;;
41943;SDS011;27636;52.610;13.244;2022-11-11T14:15:31;5.70;;;1.65;;
41943;SDS011;27636;52.610;13.244;2022-11-11T14:20:56;4.60;;;1.45;;
41943;SDS011;27636;52.610;13.244;2022-11-11T14:26:26;4.20;;;1.73;;
41943;SDS011;27636;52.610;13.244;2022-11-11T14:31:54;5.40;;;1.63;;
41943;SDS011;27636;52.610;13.244;2022-11-11T14:37:30;7.43;;;1.75;;
41943;SDS011;27636;52.610;13.244;2022-11-11T14:43:34;7.53;;;2.88;;
41943;SDS011;27636;52.610;13.244;2022-11-11T14:49:01;8.02;;;2.08;;
41943;SDS011;27636;52.610;13.244;2022-11-11T14:54:28;8.43;;;2.15;;
41943;SDS011;27636;52.610;13.244;2022-11-11T14:59:58;4.65;;;1.50;;
41943;SDS011;27636;52.610;13.244;2022-11-11T15:05:24;4.50;;;1.65;;
41943;SDS011;27636;52.610;13.244;2022-11-11T15:10:57;8.15;;;2.45;;
41943;SDS011;27636;52.610;13.244;2022-11-11T15:16:33;14.80;;;5.05;;
41943;SDS011;27636;52.610;13.244;2022-11-11T15:22:12;12.50;;;4.30;;
41943;SDS011;27636;52.610;13.244;2022-11-11T15:27:47;6.00;;;1.75;;
41943;SDS011;27636;52.610;13.244;2022-11-11T15:33:16;5.85;;;2.10;;
41943;SDS011;27636;52.610;13.244;2022-11-11T15:38:48;9.00;;;1.83;;
41943;SDS011;27636;52.610;13.244;2022-11-11T15:44:12;4.72;;;1.80;;
41943;SDS011;27636;52.610;13.244;2022-11-11T15:49:40;9.55;;;1.92;;
41943;SDS011;27636;52.610;13.244;2022-11-11T15:55:21;7.35;;;1.98;;
41943;SDS011;27636;52.610;13.244;2022-11-11T16:00:44;5.00;;;1.98;;
41943;SDS011;27636;52.610;13.244;2022-11-11T16:06:09;7.10;;;2.50;;
41943;SDS011;27636;52.610;13.244;2022-11-11T16:11:32;6.95;;;2.35;;
41943;SDS011;27636;52.610;13.244;2022-11-11T16:16:58;6.72;;;2.42;;
41943;SDS011;27636;52.610;13.244;2022-11-11T16:22:25;6.70;;;2.70;;
41943;SDS011;27636;52.610;13.244;2022-11-11T16:27:49;5.80;;;2.20;;
41943;SDS011;27636;52.610;13.244;2022-11-11T16:33:19;8.30;;;2.70;;
41943;SDS011;27636;52.610;13.244;2022-11-11T16:38:54;6.63;;;2.63;;
41943;SDS011;27636;52.610;13.244;2022-11-11T16:44:33;10.70;;;2.85;;
41943;SDS011;27636;52.610;13.244;2022-11-11T16:50:00;7.07;;;2.65;;
41943;SDS011;27636;52.610;13.244;2022-11-11T16:55:27;7.72;;;2.75;;
41943;SDS011;27636;52.610;13.244;2022-11-11T17:00:57;11.80;;;3.22;;
41943;SDS011;27636;52.610;13.244;2022-11-11T17:12:11;6.82;;;3.08;;
41943;SDS011;27636;52.610;13.244;2022-11-11T17:17:34;7.60;;;2.75;;
41943;SDS011;27636;52.610;13.244;2022-11-11T17:22:56;6.07;;;2.92;;
41943;SDS011;27636;52.610;13.244;2022-11-11T17:28:20;7.78;;;3.90;;
41943;SDS011;27636;52.610;13.244;2022-11-11T17:33:42;9.13;;;4.10;;
41943;SDS011;27636;52.610;13.244;2022-11-11T17:39:04;10.68;;;4.50;;
41943;SDS011;27636;52.610;13.244;2022-11-11T17:44:28;15.80;;;5.65;;
41943;SDS011;27636;52.610;13.244;2022-11-11T17:49:50;10.82;;;4.85;;
41943;SDS011;27636;52.610;13.244;2022-11-11T17:55:19;11.05;;;4.88;;
41943;SDS011;27636;52.610;13.244;2022-11-11T18:00:43;12.15;;;5.13;;
41943;SDS011;27636;52.610;13.244;2022-11-11T18:06:06;13.57;;;5.53;;
41943;SDS011;27636;52.610;13.244;2022-11-11T18:11:28;12.73;;;5.45;;
41943;SDS011;27636;52.610;13.244;2022-11-11T18:16:51;12.88;;;6.65;;
41943;SDS011;27636;52.610;13.244;2022-11-11T18:22:13;12.25;;;5.85;;
41943;SDS011;27636;52.610;13.244;2022-11-11T18:27:35;11.07;;;5.65;;
41943;SDS011;27636;52.610;13.244;2022-11-11T18:32:58;12.18;;;4.65;;
41943;SDS011;27636;52.610;13.244;2022-11-11T18:38:20;13.13;;;5.45;;
41943;SDS011;27636;52.610;13.244;2022-11-11T18:43:42;13.63;;;5.22;;
41943;SDS011;27636;52.610;13.244;2022-11-11T18:49:11;10.23;;;5.43;;
41943;SDS011;27636;52.610;13.244;2022-11-11T18:54:34;14.48;;;5.25;;
41943;SDS011;27636;52.610;13.244;2022-11-11T18:59:56;12.05;;;5.15;;
41943;SDS011;27636;52.610;13.244;2022-11-11T19:05:19;10.95;;;5.10;;
41943;SDS011;27636;52.610;13.244;2022-11-11T19:10:41;12.73;;;5.82;;
41943;SDS011;27636;52.610;13.244;2022-11-11T19:16:05;11.32;;;5.25;;
41943;SDS011;27636;52.610;13.244;2022-11-11T19:21:30;11.18;;;5.55;;
41943;SDS011;27636;52.610;13.244;2022-11-11T19:26:53;11.02;;;5.32;;
41943;SDS011;27636;52.610;13.244;2022-11-11T19:32:15;12.60;;;5.63;;
41943;SDS011;27636;52.610;13.244;2022-11-11T19:37:38;14.80;;;6.07;;
41943;SDS011;27636;52.610;13.244;2022-11-11T19:43:00;14.32;;;6.60;;
41943;SDS011;27636;52.610;13.244;2022-11-11T19:48:22;15.60;;;5.10;;
41943;SDS011;27636;52.610;13.244;2022-11-11T19:53:45;19.25;;;5.80;;
41943;SDS011;27636;52.610;13.244;2022-11-11T19:59:08;13.38;;;6.15;;
41943;SDS011;27636;52.610;13.244;2022-11-11T20:04:30;16.17;;;6.28;;
41943;SDS011;27636;52.610;13.244;2022-11-11T20:09:53;18.80;;;7.15;;
41943;SDS011;27636;52.610;13.244;2022-11-11T20:15:15;14.10;;;6.00;;
41943;SDS011;27636;52.610;13.244;2022-11-11T20:20:37;19.83;;;6.22;;
41943;SDS011;27636;52.610;13.244;2022-11-11T20:26:01;11.32;;;5.35;;
41943;SDS011;27636;52.610;13.244;2022-11-11T20:31:24;12.90;;;6.10;;
41943;SDS011;27636;52.610;13.244;2022-11-11T20:36:48;11.80;;;5.77;;
41943;SDS011;27636;52.610;13.244;2022-11-11T20:42:12;16.10;;;6.63;;
41943;SDS011;27636;52.610;13.244;2022-11-11T20:47:34;14.27;;;6.07;;
41943;SDS011;27636;52.610;13.244;2022-11-11T20:52:56;15.43;;;6.00;;
41943;SDS011;27636;52.610;13.244;2022-11-11T20:58:19;18.50;;;7.15;;
41943;SDS011;27636;52.610;13.244;2022-11-11T21:03:41;15.63;;;6.90;;
41943;SDS011;27636;52.610;13.244;2022-11-11T21:09:04;16.38;;;7.13;;
41943;SDS011;27636;52.610;13.244;2022-11-11T21:14:29;15.10;;;7.30;;
41943;SDS011;27636;52.610;13.244;2022-11-11T21:19:50;15.20;;;7.78;;
41943;SDS011;27636;52.610;13.244;2022-11-11T21:25:12;18.13;;;7.90;;
41943;SDS011;27636;52.610;13.244;2022-11-11T21:30:35;13.88;;;7.07;;
41943;SDS011;27636;52.610;13.244;2022-11-11T21:36:01;15.63;;;7.75;;
41943;SDS011;27636;52.610;13.244;2022-11-11T21:41:24;12.50;;;5.60;;
41943;SDS011;27636;52.610;13.244;2022-11-11T21:46:48;17.67;;;6.30;;
41943;SDS011;27636;52.610;13.244;2022-11-11T21:52:09;15.73;;;7.07;;
41943;SDS011;27636;52.610;13.244;2022-11-11T21:57:31;11.18;;;5.65;;
41943;SDS011;27636;52.610;13.244;2022-11-11T22:02:54;14.40;;;6.35;;
41943;SDS011;27636;52.610;13.244;2022-11-11T22:08:16;13.85;;;6.25;;
41943;SDS011;27636;52.610;13.244;2022-11-11T22:13:38;10.57;;;5.88;;
41943;SDS011;27636;52.610;13.244;2022-11-11T22:19:03;13.20;;;5.70;;
41943;SDS011;27636;52.610;13.244;2022-11-11T22:24:27;13.52;;;5.70;;
41943;SDS011;27636;52.610;13.244;2022-11-11T22:29:49;13.57;;;5.88;;
41943;SDS011;27636;52.610;13.244;2022-11-11T22:35:12;14.43;;;5.70;;
41943;SDS011;27636;52.610;13.244;2022-11-11T22:40:34;14.30;;;4.75;;
41943;SDS011;27636;52.610;13.244;2022-11-11T22:45:56;13.75;;;5.72;;
41943;SDS011;27636;52.610;13.244;2022-11-11T22:51:21;12.45;;;5.50;;
41943;SDS011;27636;52.610;13.244;2022-11-11T22:56:44;12.82;;;4.20;;
41943;SDS011;27636;52.610;13.244;2022-11-11T23:02:05;13.77;;;5.97;;
41943;SDS011;27636;52.610;13.244;2022-11-11T23:07:29;11.05;;;6.03;;
41943;SDS011;27636;52.610;13.244;2022-11-11T23:12:51;10.65;;;4.57;;
41943;SDS011;27636;52.610;13.244;2022-11-11T23:18:18;11.15;;;5.00;;
41943;SDS011;27636;52.610;13.244;2022-11-11T23:23:42;16.80;;;5.40;;
41943;SDS011;27636;52.610;13.244;2022-11-11T23:29:05;10.57;;;5.32;;
41943;SDS011;27636;52.610;13.244;2022-11-11T23:34:27;15.80;;;5.30;;
41943;SDS011;27636;52.610;13.244;2022-11-11T23:39:51;11.55;;;5.65;;
41943;SDS011;27636;52.610;13.244;2022-11-11T23:45:13;11.80;;;4.43;;
41943;SDS011;27636;52.610;13.244;2022-11-11T23:50:34;11.00;;;5.15;;
41943;SDS011;27636;52.610;13.244;2022-11-11T23:55:57;11.38;;;5.03;;
